Time;durP1;ratioP1;P1;durP2;ratioP2;P2;SDS_P1;SDS_P2;PMS_P1;PMS_P2;Temp;Humidity;BMP_temperature;BMP_pressure;BME280_temperature;BME280_humidity;BME280_pressure;Samples;Min_cycle;Max_cycle;Signal;HPM_P1;HPM_P2
2023/05/13 00:02:22;;;;;;;4.53;2.80;;;14.20;76.50;;;;;;1924828;74;20995;-48
2023/05/13 00:04:51;;;;;;;3.95;3.20;;;14.20;76.60;;;;;;1924888;74;21054;-48
2023/05/13 00:07:20;;;;;;;3.00;2.65;;;14.20;76.70;;;;;;1924847;74;21031;-48
2023/05/13 00:09:49;;;;;;;5.42;3.05;;;14.30;77.00;;;;;;1924841;74;21108;-48
2023/05/13 00:12:18;;;;;;;5.37;2.58;;;14.30;77.10;;;;;;1924991;74;21108;-48
2023/05/13 00:14:47;;;;;;;3.47;2.98;;;14.30;77.20;;;;;;1924999;74;21039;-47
2023/05/13 00:17:16;;;;;;;3.22;2.52;;;14.40;77.20;;;;;;1924591;74;21112;-48
2023/05/13 00:19:45;;;;;;;4.85;2.90;;;14.40;77.30;;;;;;1905991;74;21040;-48
2023/05/13 00:22:14;;;;;;;2.52;2.33;;;14.40;77.40;;;;;;1905300;75;21008;-48
2023/05/13 00:24:43;;;;;;;4.97;3.05;;;14.40;77.40;;;;;;1905440;75;21035;-48
2023/05/13 00:27:13;;;;;;;3.80;2.87;;;14.40;77.50;;;;;;1905265;75;20983;-51
2023/05/13 00:29:42;;;;;;;5.40;3.40;;;14.50;77.60;;;;;;1905245;75;21015;-51
2023/05/13 00:32:11;;;;;;;4.08;2.98;;;14.50;77.60;;;;;;1905254;75;21081;-51
2023/05/13 00:34:40;;;;;;;4.05;2.80;;;14.40;77.70;;;;;;1905279;75;20984;-51
2023/05/13 00:37:10;;;;;;;3.75;2.77;;;14.40;77.80;;;;;;1905242;74;21132;-51
2023/05/13 00:39:39;;;;;;;5.75;2.70;;;14.40;77.80;;;;;;1905400;75;21129;-50
2023/05/13 00:42:11;;;;;;;3.47;2.92;;;14.40;77.70;;;;;;1905203;75;21011;-49
2023/05/13 00:44:39;;;;;;;4.87;2.98;;;14.40;77.70;;;;;;1905398;74;21088;-49
2023/05/13 00:47:10;;;;;;;5.08;3.10;;;14.40;77.70;;;;;;1905322;75;20987;-50
2023/05/13 00:49:40;;;;;;;4.00;3.10;;;14.40;77.80;;;;;;1905195;74;21015;-49
2023/05/13 00:52:09;;;;;;;3.08;2.52;;;14.30;77.70;;;;;;1905182;75;20996;-49
2023/05/13 00:54:39;;;;;;;5.17;2.70;;;14.20;77.70;;;;;;1905168;75;21031;-50
2023/05/13 00:57:09;;;;;;;4.12;2.80;;;14.20;77.90;;;;;;1905344;75;21085;-49
2023/05/13 00:59:39;;;;;;;3.90;2.70;;;14.10;77.90;;;;;;1905176;75;21073;-49
2023/05/13 01:02:29;;;;;;;2.83;2.50;;;14.10;78.20;;;;;;1905344;74;21022;-50
2023/05/13 01:05:09;;;;;;;5.40;2.40;;;14.10;78.10;;;;;;1903105;74;21109;-48
2023/05/13 01:07:47;;;;;;;3.08;2.37;;;14.10;78.10;;;;;;1905096;74;21023;-48
2023/05/13 01:10:28;;;;;;;3.65;2.75;;;14.10;78.30;;;;;;1904961;74;21011;-48
2023/05/13 01:13:02;;;;;;;6.22;2.95;;;14.10;78.30;;;;;;1904966;74;21012;-50
2023/05/13 01:15:34;;;;;;;5.30;2.98;;;14.10;78.30;;;;;;1905264;75;21115;-49
2023/05/13 01:18:20;;;;;;;3.47;2.52;;;14.20;78.40;;;;;;1905257;74;21093;-49
2023/05/13 01:20:50;;;;;;;5.30;2.33;;;14.20;78.50;;;;;;1895438;74;21043;-48
2023/05/13 01:23:19;;;;;;;3.85;2.87;;;14.20;78.50;;;;;;1905226;74;21035;-49
2023/05/13 01:25:49;;;;;;;3.47;2.47;;;14.20;78.30;;;;;;1905329;75;21019;-50
2023/05/13 01:28:19;;;;;;;3.27;2.58;;;14.20;78.40;;;;;;1905335;75;21093;-50
2023/05/13 01:30:50;;;;;;;4.17;2.92;;;14.20;78.60;;;;;;1905257;75;21117;-48
2023/05/13 01:33:19;;;;;;;4.60;2.40;;;14.20;78.60;;;;;;1905351;74;21028;-47
2023/05/13 01:35:49;;;;;;;4.05;2.70;;;14.20;78.70;;;;;;1905355;75;21011;-48
2023/05/13 01:38:20;;;;;;;4.50;2.70;;;14.20;78.80;;;;;;1905157;74;21514;-50
2023/05/13 01:40:51;;;;;;;7.00;3.10;;;14.20;78.90;;;;;;1905072;74;21020;-48
2023/05/13 01:43:20;;;;;;;3.83;2.80;;;14.20;79.00;;;;;;1905325;75;21020;-48
2023/05/13 01:45:50;;;;;;;4.17;2.92;;;14.20;79.10;;;;;;1905323;75;21091;-47
2023/05/13 01:48:19;;;;;;;3.70;2.90;;;14.20;79.20;;;;;;1905171;75;21090;-48
2023/05/13 01:50:49;;;;;;;5.15;3.40;;;14.20;79.50;;;;;;1905300;75;21101;-48
2023/05/13 01:53:19;;;;;;;3.15;2.65;;;14.20;79.60;;;;;;1905186;75;21395;-48
2023/05/13 01:55:48;;;;;;;3.55;3.20;;;14.20;79.60;;;;;;1905369;75;20994;-48
2023/05/13 01:58:17;;;;;;;4.42;3.05;;;14.20;79.60;;;;;;1905148;75;21027;-47
2023/05/13 02:00:46;;;;;;;7.42;3.05;;;14.20;79.70;;;;;;1905324;74;21075;-47
2023/05/13 02:03:15;;;;;;;4.70;2.98;;;14.20;79.80;;;;;;1905178;75;21462;-49
2023/05/13 02:05:47;;;;;;;5.37;3.65;;;14.10;80.00;;;;;;1905395;75;21019;-48
2023/05/13 02:08:16;;;;;;;5.62;2.80;;;14.10;80.20;;;;;;1905360;75;21063;-47
2023/05/13 02:10:47;;;;;;;4.00;2.85;;;14.10;80.30;;;;;;1905482;75;21128;-47
2023/05/13 02:13:16;;;;;;;4.47;3.15;;;14.10;80.30;;;;;;1904741;74;21007;-47
2023/05/13 02:15:45;;;;;;;5.03;3.40;;;14.10;80.60;;;;;;1905297;75;21047;-47
2023/05/13 02:18:14;;;;;;;5.72;3.22;;;14.00;80.80;;;;;;1905370;75;20988;-47
2023/05/13 02:20:44;;;;;;;7.75;2.95;;;14.00;81.10;;;;;;1921636;74;21043;-48
2023/05/13 02:23:13;;;;;;;4.75;3.10;;;13.90;81.20;;;;;;1924820;74;21086;-47
2023/05/13 02:25:43;;;;;;;4.15;3.12;;;14.00;81.60;;;;;;1924853;74;21014;-48
2023/05/13 02:28:12;;;;;;;21.02;5.70;;;13.90;81.70;;;;;;1924746;74;21055;-50
2023/05/13 02:30:42;;;;;;;6.10;3.05;;;13.90;81.70;;;;;;1924932;74;21062;-47
2023/05/13 02:33:12;;;;;;;5.37;2.83;;;14.00;81.80;;;;;;1924809;74;21433;-49
2023/05/13 02:35:41;;;;;;;7.70;3.58;;;13.90;81.90;;;;;;1924872;74;21082;-49
2023/05/13 02:38:10;;;;;;;14.65;3.75;;;13.90;81.90;;;;;;1924834;74;21112;-50
2023/05/13 02:40:39;;;;;;;20.02;4.87;;;13.90;81.80;;;;;;1924814;74;21118;-49
2023/05/13 02:43:09;;;;;;;9.25;3.83;;;13.90;82.00;;;;;;1904038;74;21033;-49
2023/05/13 02:45:46;;;;;;;4.25;3.17;;;13.80;82.10;;;;;;1924439;74;21179;-49
2023/05/13 02:48:15;;;;;;;7.92;3.55;;;13.80;82.30;;;;;;1924764;74;21066;-48
2023/05/13 02:50:44;;;;;;;8.13;3.58;;;13.80;82.40;;;;;;1924817;74;21042;-48
2023/05/13 02:53:13;;;;;;;4.08;3.40;;;13.80;82.30;;;;;;1924804;74;21100;-48
2023/05/13 02:55:44;;;;;;;5.97;3.25;;;13.80;82.30;;;;;;1924352;74;21685;-47
2023/05/13 02:58:13;;;;;;;9.70;3.85;;;13.80;82.10;;;;;;1924951;74;21030;-48
2023/05/13 03:00:42;;;;;;;4.85;3.40;;;13.80;82.20;;;;;;1924853;74;21035;-48
2023/05/13 03:03:12;;;;;;;9.55;4.10;;;13.80;82.30;;;;;;1924764;74;21025;-48
2023/05/13 03:05:41;;;;;;;6.10;3.10;;;13.80;82.40;;;;;;1924811;74;21104;-48
2023/05/13 03:08:10;;;;;;;7.37;3.27;;;13.90;82.50;;;;;;1924759;74;21034;-48
2023/05/13 03:10:39;;;;;;;5.10;3.15;;;13.90;82.50;;;;;;1924919;74;21011;-48
2023/05/13 03:13:09;;;;;;;4.78;3.02;;;13.90;82.40;;;;;;1924780;74;21019;-48
2023/05/13 03:15:38;;;;;;;3.92;3.50;;;13.90;82.50;;;;;;1924818;74;21108;-49
2023/05/13 03:18:07;;;;;;;6.65;3.15;;;13.90;82.30;;;;;;1924768;74;21076;-48
2023/05/13 03:20:36;;;;;;;5.33;3.40;;;13.90;82.20;;;;;;1924920;74;21547;-47
2023/05/13 03:23:06;;;;;;;4.47;3.37;;;14.00;82.30;;;;;;1924807;74;21077;-48
2023/05/13 03:25:35;;;;;;;4.03;3.20;;;14.10;82.40;;;;;;1924979;74;21144;-47
2023/05/13 03:28:04;;;;;;;4.12;2.92;;;14.20;82.30;;;;;;1924819;74;21003;-48
2023/05/13 03:30:35;;;;;;;7.50;3.30;;;14.30;82.00;;;;;;1924342;74;21147;-48
2023/05/13 03:33:06;;;;;;;4.67;2.98;;;14.30;81.80;;;;;;1924462;74;21567;-48
2023/05/13 03:35:35;;;;;;;4.22;3.22;;;14.40;81.80;;;;;;1924991;74;21058;-48
2023/05/13 03:38:04;;;;;;;6.25;3.30;;;14.50;81.70;;;;;;1924791;74;20987;-48
2023/05/13 03:40:34;;;;;;;6.47;2.92;;;14.50;81.50;;;;;;1904094;74;21023;-48
2023/05/13 03:43:03;;;;;;;5.75;2.80;;;14.50;81.30;;;;;;1924668;74;20998;-48
2023/05/13 03:45:33;;;;;;;4.33;3.00;;;14.50;81.20;;;;;;1924672;74;21469;-48
2023/05/13 03:48:04;;;;;;;4.70;3.10;;;14.50;80.80;;;;;;1924382;74;21043;-48
2023/05/13 03:50:33;;;;;;;6.35;2.80;;;14.50;80.50;;;;;;1924690;74;21026;-48
2023/05/13 03:53:03;;;;;;;3.80;3.10;;;14.50;80.80;;;;;;1924641;74;21086;-47
2023/05/13 03:55:33;;;;;;;4.08;2.90;;;14.50;80.70;;;;;;1924726;74;21115;-47
2023/05/13 03:58:12;;;;;;;4.28;3.08;;;14.40;80.90;;;;;;1924581;74;21015;-47
2023/05/13 04:00:41;;;;;;;6.37;3.30;;;14.50;80.90;;;;;;1924685;74;21003;-48
2023/05/13 04:03:10;;;;;;;7.35;2.95;;;14.60;80.60;;;;;;1924733;74;21023;-48
2023/05/13 04:05:39;;;;;;;3.42;2.67;;;14.50;80.10;;;;;;1924796;74;21084;-48
2023/05/13 04:08:10;;;;;;;7.58;3.20;;;14.40;79.80;;;;;;1924642;74;21092;-48
2023/05/13 04:10:39;;;;;;;4.40;3.25;;;14.40;80.00;;;;;;1924656;74;21088;-48
2023/05/13 04:13:08;;;;;;;5.60;3.33;;;14.40;80.00;;;;;;1924627;74;20983;-48
2023/05/13 04:15:37;;;;;;;7.75;4.60;;;14.40;80.10;;;;;;1924644;74;21084;-50
2023/05/13 04:18:07;;;;;;;4.33;3.92;;;14.30;80.50;;;;;;1924597;74;21027;-48
2023/05/13 04:20:38;;;;;;;6.45;4.10;;;14.30;79.80;;;;;;1924720;74;21093;-51
2023/05/13 04:23:07;;;;;;;6.62;4.12;;;14.30;79.90;;;;;;1924704;74;21010;-52
2023/05/13 04:25:36;;;;;;;4.50;3.52;;;14.20;79.90;;;;;;1924624;74;21489;-51
2023/05/13 04:28:06;;;;;;;5.17;3.30;;;14.30;80.20;;;;;;1924651;74;21074;-52
2023/05/13 04:30:37;;;;;;;7.55;3.50;;;14.20;80.20;;;;;;1924051;74;21062;-51
2023/05/13 04:33:07;;;;;;;4.45;3.25;;;14.20;80.00;;;;;;1924597;74;21108;-49
2023/05/13 04:35:36;;;;;;;6.62;3.60;;;14.30;80.20;;;;;;1924615;74;21082;-50
2023/05/13 04:38:06;;;;;;;4.70;3.37;;;14.30;80.30;;;;;;1924588;74;21120;-50
2023/05/13 04:40:35;;;;;;;5.10;3.30;;;14.30;80.30;;;;;;1924669;74;21001;-50
2023/05/13 04:43:06;;;;;;;7.62;3.92;;;14.30;80.20;;;;;;1923958;74;21102;-49
2023/05/13 04:45:37;;;;;;;5.05;3.20;;;14.40;80.10;;;;;;1923916;74;21141;-48
2023/05/13 04:48:07;;;;;;;8.70;3.45;;;14.40;80.00;;;;;;1924332;74;21046;-48
2023/05/13 04:50:37;;;;;;;4.00;3.00;;;14.40;80.20;;;;;;1924493;74;21007;-51
2023/05/13 04:53:06;;;;;;;4.30;3.05;;;14.50;80.10;;;;;;1924505;74;21097;-49
2023/05/13 04:55:35;;;;;;;6.58;3.40;;;14.50;80.50;;;;;;1924599;74;21092;-49
2023/05/13 04:58:03;;;;;;;4.75;3.55;;;14.50;80.10;;;;;;1924469;74;20989;-49
2023/05/13 05:00:33;;;;;;;4.45;3.65;;;14.50;80.30;;;;;;1924637;74;21433;-48
2023/05/13 05:03:03;;;;;;;5.17;3.15;;;14.50;80.10;;;;;;1924728;74;21015;-49
2023/05/13 05:05:32;;;;;;;5.87;4.42;;;14.60;80.40;;;;;;1924664;74;21088;-49
2023/05/13 05:08:02;;;;;;;6.37;3.75;;;14.70;80.30;;;;;;1924580;74;21011;-49
2023/05/13 05:10:31;;;;;;;4.03;3.42;;;14.70;80.30;;;;;;1924552;74;21532;-50
2023/05/13 05:13:02;;;;;;;5.65;3.77;;;14.80;80.10;;;;;;1924641;74;21567;-51
2023/05/13 05:15:31;;;;;;;23.80;11.53;;;15.00;80.10;;;;;;1924749;74;20994;-48
2023/05/13 05:18:01;;;;;;;19.40;12.80;;;15.00;79.80;;;;;;1924306;74;21156;-48
2023/05/13 05:20:30;;;;;;;10.13;5.17;;;15.10;79.60;;;;;;1924586;74;21018;-48
2023/05/13 05:23:01;;;;;;;7.20;3.35;;;15.20;79.50;;;;;;1905704;74;21506;-49
2023/05/13 05:25:31;;;;;;;4.37;3.75;;;15.30;79.40;;;;;;1905169;75;21047;-48
2023/05/13 05:28:00;;;;;;;18.55;4.05;;;15.30;79.20;;;;;;1905176;75;20996;-49
2023/05/13 05:30:29;;;;;;;4.87;3.70;;;15.40;79.40;;;;;;1905396;74;21031;-49
2023/05/13 05:33:00;;;;;;;6.72;3.47;;;15.50;79.30;;;;;;1904788;74;21047;-48
2023/05/13 05:35:28;;;;;;;5.55;3.72;;;15.60;78.90;;;;;;1905255;75;21055;-49
2023/05/13 05:37:58;;;;;;;3.67;3.22;;;15.60;78.30;;;;;;1905267;75;21032;-48
2023/05/13 05:40:28;;;;;;;7.53;3.22;;;15.70;78.10;;;;;;1905293;75;20987;-48
2023/05/13 05:42:57;;;;;;;4.67;3.08;;;15.80;78.40;;;;;;1905062;75;21063;-48
2023/05/13 05:45:26;;;;;;;8.03;4.40;;;15.70;78.00;;;;;;1905175;75;21148;-48
2023/05/13 05:47:56;;;;;;;4.92;3.72;;;15.80;78.20;;;;;;1892319;75;21031;-49
2023/05/13 05:50:25;;;;;;;10.75;3.50;;;15.80;78.00;;;;;;1905331;75;20999;-48
2023/05/13 05:52:55;;;;;;;13.28;4.45;;;15.80;78.00;;;;;;1905464;74;21105;-48
2023/05/13 05:55:26;;;;;;;11.18;7.00;;;15.80;78.50;;;;;;1905557;75;21035;-48
2023/05/13 05:57:55;;;;;;;6.50;4.08;;;15.80;78.10;;;;;;1905497;75;21031;-51
2023/05/13 06:00:25;;;;;;;8.90;5.65;;;15.80;78.10;;;;;;1905548;75;21004;-49
2023/05/13 06:02:59;;;;;;;13.35;7.78;;;15.90;77.80;;;;;;1905199;74;21157;-48
2023/05/13 06:05:28;;;;;;;27.95;13.00;;;15.90;77.70;;;;;;1905387;75;21092;-49
2023/05/13 06:07:57;;;;;;;7.15;4.83;;;16.00;77.80;;;;;;1905475;75;21004;-48
2023/05/13 06:10:27;;;;;;;5.40;4.08;;;16.00;77.90;;;;;;1905352;75;21070;-48
2023/05/13 06:12:56;;;;;;;5.58;4.08;;;16.10;77.90;;;;;;1905326;75;21054;-48
2023/05/13 06:15:26;;;;;;;5.35;3.45;;;16.30;76.50;;;;;;1905392;75;21089;-48
2023/05/13 06:17:55;;;;;;;6.78;3.42;;;16.40;76.80;;;;;;1905402;75;21007;-48
2023/05/13 06:20:24;;;;;;;9.38;6.50;;;16.40;75.50;;;;;;1905334;75;21055;-48
2023/05/13 06:22:54;;;;;;;8.75;4.90;;;16.50;75.60;;;;;;1905341;75;21058;-49
2023/05/13 06:25:23;;;;;;;10.90;8.10;;;16.60;75.40;;;;;;1905446;75;21105;-48
2023/05/13 06:27:52;;;;;;;18.80;11.50;;;16.70;74.40;;;;;;1905398;75;20980;-48
2023/05/13 06:30:24;;;;;;;5.47;3.80;;;16.80;74.00;;;;;;1905379;75;21027;-48
2023/05/13 06:32:54;;;;;;;8.65;6.03;;;16.80;74.10;;;;;;1905405;75;21015;-47
2023/05/13 06:35:23;;;;;;;14.05;6.83;;;17.00;74.20;;;;;;1905402;75;21024;-48
2023/05/13 06:37:52;;;;;;;16.17;5.50;;;17.10;73.40;;;;;;1905390;74;21109;-48
2023/05/13 06:40:21;;;;;;;14.65;9.83;;;17.20;73.10;;;;;;1905466;75;20995;-49
2023/05/13 06:42:50;;;;;;;27.95;16.65;;;17.30;72.50;;;;;;1905416;75;20988;-48
2023/05/13 06:45:24;;;;;;;11.40;7.15;;;17.30;72.80;;;;;;1904695;74;21157;-50
2023/05/13 06:47:54;;;;;;;13.08;8.85;;;17.50;71.60;;;;;;1905361;75;21027;-48
2023/05/13 06:50:23;;;;;;;6.10;4.75;;;17.50;71.00;;;;;;1905355;75;21093;-47
2023/05/13 06:52:52;;;;;;;6.33;4.97;;;17.50;70.40;;;;;;1905339;75;21024;-48
2023/05/13 06:55:21;;;;;;;4.10;3.70;;;17.50;69.90;;;;;;1905385;74;21031;-48
2023/05/13 06:57:51;;;;;;;4.47;2.87;;;17.60;70.10;;;;;;1905494;75;21031;-48
2023/05/13 07:00:21;;;;;;;5.30;3.87;;;17.60;69.40;;;;;;1905344;75;21016;-48
2023/05/13 07:02:50;;;;;;;4.62;3.50;;;17.60;70.30;;;;;;1905416;75;21101;-48
2023/05/13 07:05:19;;;;;;;7.22;3.65;;;17.70;70.30;;;;;;1905455;75;20999;-48
2023/05/13 07:07:52;;;;;;;8.33;5.42;;;17.70;70.30;;;;;;1905432;75;21104;-48
2023/05/13 07:10:19;;;;;;;10.85;7.35;;;17.80;70.00;;;;;;1905367;75;21011;-49
2023/05/13 07:12:48;;;;;;;6.95;4.50;;;17.90;69.60;;;;;;1905611;75;21003;-48
2023/05/13 07:15:18;;;;;;;3.98;2.85;;;17.90;69.60;;;;;;1905484;75;21059;-47
2023/05/13 07:17:47;;;;;;;8.85;5.67;;;18.00;69.60;;;;;;1905361;75;21152;-48
2023/05/13 07:20:20;;;;;;;8.13;4.92;;;18.00;69.40;;;;;;1905321;75;21016;-48
2023/05/13 07:22:46;;;;;;;3.12;2.40;;;18.10;69.60;;;;;;1912293;74;21056;-48
2023/05/13 07:25:16;;;;;;;7.97;5.50;;;18.10;68.60;;;;;;1924772;74;21047;-48
2023/05/13 07:27:46;;;;;;;8.03;4.00;;;18.20;69.50;;;;;;1924855;74;21002;-48
2023/05/13 07:30:16;;;;;;;10.00;4.80;;;18.40;69.40;;;;;;1924751;74;20998;-48
2023/05/13 07:32:44;;;;;;;3.77;2.60;;;18.40;69.60;;;;;;1924652;74;21000;-49
2023/05/13 07:35:15;;;;;;;6.10;3.83;;;18.50;68.80;;;;;;1924846;74;21022;-48
2023/05/13 07:37:47;;;;;;;4.75;3.67;;;18.50;69.10;;;;;;1924711;74;21030;-48
2023/05/13 07:40:17;;;;;;;3.17;2.70;;;18.50;69.00;;;;;;1924817;74;21061;-48
2023/05/13 07:42:46;;;;;;;14.20;4.12;;;18.50;68.60;;;;;;1924691;74;21027;-47
2023/05/13 07:45:15;;;;;;;6.33;3.58;;;18.60;68.90;;;;;;1924832;74;21086;-48
2023/05/13 07:47:44;;;;;;;5.65;3.75;;;18.60;68.80;;;;;;1924866;74;21019;-47
2023/05/13 07:50:13;;;;;;;4.37;3.58;;;18.70;69.00;;;;;;1924720;74;21019;-48
2023/05/13 07:52:43;;;;;;;5.33;3.70;;;18.70;69.30;;;;;;1924788;74;21039;-47
2023/05/13 07:55:12;;;;;;;5.17;3.50;;;18.80;68.90;;;;;;1924869;74;21073;-48
2023/05/13 07:57:41;;;;;;;6.17;3.45;;;18.80;69.30;;;;;;1924754;74;21010;-47
2023/05/13 08:00:11;;;;;;;6.33;3.35;;;18.90;68.60;;;;;;1924717;74;20979;-48
2023/05/13 08:02:44;;;;;;;6.70;3.50;;;18.90;67.80;;;;;;1924760;74;21010;-48
2023/05/13 08:05:13;;;;;;;10.10;4.83;;;18.80;68.30;;;;;;1924757;74;21007;-48
2023/05/13 08:07:42;;;;;;;4.00;2.77;;;18.80;68.30;;;;;;1924736;74;21039;-48
2023/05/13 08:10:11;;;;;;;6.15;3.50;;;18.80;67.80;;;;;;1924740;74;21022;-47
2023/05/13 08:12:40;;;;;;;6.30;3.33;;;18.90;67.70;;;;;;1924762;74;21027;-48
2023/05/13 08:15:13;;;;;;;4.50;3.17;;;19.00;67.20;;;;;;1924715;74;21100;-48
2023/05/13 08:17:40;;;;;;;3.27;2.42;;;19.10;66.80;;;;;;1924561;74;21469;-48
2023/05/13 08:20:10;;;;;;;4.40;3.58;;;19.10;66.30;;;;;;1924629;74;20999;-47
2023/05/13 08:22:39;;;;;;;3.40;2.35;;;19.20;64.00;;;;;;1923449;74;21003;-48
2023/05/13 08:25:10;;;;;;;7.28;3.08;;;19.20;63.70;;;;;;1905311;75;21650;-48
2023/05/13 08:27:39;;;;;;;6.85;2.77;;;19.20;63.80;;;;;;1905303;75;21007;-49
2023/05/13 08:30:09;;;;;;;6.58;3.12;;;19.20;64.20;;;;;;1905293;74;21145;-47
2023/05/13 08:32:38;;;;;;;7.87;3.10;;;19.30;65.00;;;;;;1905395;75;21054;-47
2023/05/13 08:35:07;;;;;;;5.17;2.77;;;19.40;63.20;;;;;;1905317;75;21565;-48
2023/05/13 08:37:36;;;;;;;7.45;3.25;;;19.50;64.10;;;;;;1905366;75;21019;-48
2023/05/13 08:40:07;;;;;;;4.45;2.50;;;19.60;63.30;;;;;;1905237;75;21117;-48
2023/05/13 08:42:38;;;;;;;2.87;2.50;;;19.70;61.60;;;;;;1905274;75;21008;-47
2023/05/13 08:45:09;;;;;;;7.50;2.52;;;19.70;61.90;;;;;;1905310;75;21086;-48
2023/05/13 08:47:53;;;;;;;5.50;2.75;;;19.80;60.90;;;;;;1905423;75;21028;-48
2023/05/13 08:50:22;;;;;;;8.75;3.30;;;19.80;61.70;;;;;;1905312;75;21164;-48
2023/05/13 08:52:53;;;;;;;4.75;2.70;;;19.80;61.50;;;;;;1905441;75;21114;-47
2023/05/13 08:55:23;;;;;;;9.10;3.62;;;19.90;62.10;;;;;;1905122;74;21019;-48
2023/05/13 08:57:53;;;;;;;5.37;2.30;;;20.00;62.20;;;;;;1905439;75;21081;-48
2023/05/13 09:00:22;;;;;;;4.50;2.47;;;20.10;61.70;;;;;;1905235;75;21085;-47
2023/05/13 09:02:52;;;;;;;4.90;2.42;;;20.10;60.20;;;;;;1905304;75;21035;-48
2023/05/13 09:05:21;;;;;;;4.28;2.20;;;20.10;60.50;;;;;;1905248;75;21081;-48
2023/05/13 09:07:50;;;;;;;4.10;2.77;;;20.00;60.50;;;;;;1905426;75;21092;-48
2023/05/13 09:10:20;;;;;;;2.87;2.42;;;20.10;61.20;;;;;;1905217;75;21035;-48
2023/05/13 09:12:53;;;;;;;5.53;2.98;;;20.20;60.20;;;;;;1905271;74;21024;-48
2023/05/13 09:15:24;;;;;;;4.70;2.60;;;20.30;60.20;;;;;;1905292;75;21520;-48
2023/05/13 09:18:05;;;;;;;4.30;2.98;;;20.30;59.40;;;;;;1905352;75;21093;-47
2023/05/13 09:20:35;;;;;;;2.60;1.92;;;20.30;60.30;;;;;;1904318;74;21156;-48
2023/05/13 09:23:09;;;;;;;7.40;4.03;;;20.30;59.00;;;;;;1905300;75;21007;-49
2023/05/13 09:25:39;;;;;;;2.25;1.80;;;20.30;60.00;;;;;;1905122;74;21059;-48
2023/05/13 09:28:13;;;;;;;8.20;3.70;;;20.30;57.70;;;;;;1905205;75;21093;-47
2023/05/13 09:30:44;;;;;;;6.00;3.42;;;20.20;59.30;;;;;;1905638;75;21442;-48
2023/05/13 09:33:18;;;;;;;12.30;3.10;;;20.30;59.90;;;;;;1905436;75;20971;-47
2023/05/13 09:35:52;;;;;;;8.00;3.37;;;20.40;59.20;;;;;;1905517;75;21073;-47
2023/05/13 09:38:23;;;;;;;3.83;2.72;;;20.50;59.60;;;;;;1905854;75;21012;-47
2023/05/13 09:41:00;;;;;;;4.45;3.00;;;20.60;59.00;;;;;;1905495;75;21462;-48
2023/05/13 09:43:33;;;;;;;13.70;3.87;;;20.70;59.30;;;;;;1905454;75;21059;-48
2023/05/13 09:46:04;;;;;;;5.35;2.85;;;20.70;59.10;;;;;;1905386;75;21043;-47
2023/05/13 09:48:36;;;;;;;4.28;2.42;;;20.80;58.60;;;;;;1905523;75;21031;-48
2023/05/13 09:51:05;;;;;;;6.97;3.80;;;20.80;58.60;;;;;;1905430;75;21486;-47
2023/05/13 09:53:34;;;;;;;5.37;3.17;;;20.80;58.40;;;;;;1905494;75;20995;-48
2023/05/13 09:56:04;;;;;;;4.72;2.52;;;20.80;59.10;;;;;;1905364;75;21020;-48
2023/05/13 09:58:33;;;;;;;6.62;2.83;;;20.70;58.30;;;;;;1905517;75;21156;-48
2023/05/13 10:01:04;;;;;;;4.37;3.33;;;20.60;58.00;;;;;;1905370;75;21138;-48
2023/05/13 10:03:33;;;;;;;3.55;2.52;;;20.50;59.10;;;;;;1905440;75;20980;-48
2023/05/13 10:06:04;;;;;;;6.25;3.65;;;20.60;59.00;;;;;;1905373;75;21135;-47
2023/05/13 10:08:35;;;;;;;8.28;3.45;;;20.60;58.80;;;;;;1905356;75;21004;-47
2023/05/13 10:11:06;;;;;;;4.95;2.80;;;20.60;59.30;;;;;;1904882;74;21016;-47
2023/05/13 10:13:35;;;;;;;3.77;2.77;;;20.70;58.50;;;;;;1887074;75;21023;-48
2023/05/13 10:16:06;;;;;;;5.08;2.70;;;20.70;58.70;;;;;;1884065;75;21487;-47
2023/05/13 10:18:36;;;;;;;7.30;4.00;;;20.70;58.50;;;;;;1883397;75;21181;-47
2023/05/13 10:21:05;;;;;;;4.78;2.75;;;20.80;59.40;;;;;;1881837;75;21020;-47
2023/05/13 10:23:35;;;;;;;3.77;2.42;;;20.80;59.30;;;;;;1886898;75;21009;-48
2023/05/13 10:26:06;;;;;;;5.03;3.60;;;20.80;58.40;;;;;;1894096;75;21055;-48
2023/05/13 10:28:36;;;;;;;3.40;3.10;;;20.80;59.40;;;;;;1894704;75;21113;-48
2023/05/13 10:31:05;;;;;;;6.37;3.77;;;20.80;58.90;;;;;;1883673;75;21087;-49
2023/05/13 10:33:34;;;;;;;12.35;8.05;;;20.80;60.60;;;;;;1883891;75;21020;-47
2023/05/13 10:36:22;;;;;;;7.50;3.77;;;20.90;60.10;;;;;;1882544;75;21077;-48
2023/05/13 10:39:00;;;;;;;6.30;3.50;;;20.90;59.70;;;;;;1887546;75;21674;-47
2023/05/13 10:41:52;;;;;;;6.60;4.53;;;21.00;59.40;;;;;;1890456;75;21007;-49
2023/05/13 10:44:22;;;;;;;5.97;3.15;;;21.10;59.00;;;;;;1889474;75;21157;-49
2023/05/13 10:46:51;;;;;;;4.47;3.10;;;21.10;59.00;;;;;;1885509;75;21035;-48
2023/05/13 10:49:23;;;;;;;6.20;3.42;;;21.10;58.80;;;;;;1889058;75;21506;-48
2023/05/13 10:51:52;;;;;;;4.15;3.25;;;21.20;58.50;;;;;;1887273;75;21017;-49
2023/05/13 10:54:23;;;;;;;7.47;3.42;;;21.20;58.50;;;;;;1894815;75;21146;-48
2023/05/13 10:56:57;;;;;;;4.05;2.92;;;21.10;58.70;;;;;;1892347;75;21023;-47
2023/05/13 10:59:29;;;;;;;4.62;3.02;;;21.00;57.60;;;;;;1889113;75;21009;-48
2023/05/13 11:01:58;;;;;;;7.75;3.55;;;20.90;58.10;;;;;;1898399;75;21023;-48
2023/05/13 11:04:27;;;;;;;4.12;2.95;;;20.90;58.70;;;;;;1876961;75;21000;-48
2023/05/13 11:06:59;;;;;;;3.17;2.50;;;20.90;58.90;;;;;;1879318;75;21466;-49
2023/05/13 11:09:30;;;;;;;5.70;2.72;;;20.90;58.60;;;;;;1883262;75;21035;-48
2023/05/13 11:12:01;;;;;;;10.23;3.77;;;20.90;58.30;;;;;;1895343;75;21010;-47
2023/05/13 11:14:31;;;;;;;4.90;3.22;;;20.80;57.90;;;;;;1889487;74;21168;-50
2023/05/13 11:17:06;;;;;;;3.75;2.87;;;20.80;58.00;;;;;;1883883;75;21015;-51
2023/05/13 11:19:40;;;;;;;3.60;2.72;;;20.80;57.80;;;;;;1884102;75;21109;-49
2023/05/13 11:22:21;;;;;;;8.95;3.45;;;20.80;57.60;;;;;;1872535;75;21156;-51
2023/05/13 11:25:12;;;;;;;7.83;3.25;;;20.80;57.80;;;;;;1886519;75;21068;-51
2023/05/13 11:27:42;;;;;;;5.22;3.47;;;20.90;57.60;;;;;;1877686;75;21182;-47
2023/05/13 11:30:25;;;;;;;6.72;3.62;;;20.80;57.30;;;;;;1872782;76;21118;-50
2023/05/13 11:32:56;;;;;;;6.62;3.65;;;20.80;57.70;;;;;;1890869;75;21528;-47
2023/05/13 11:35:30;;;;;;;3.42;2.62;;;20.60;58.00;;;;;;1887679;75;21096;-47
2023/05/13 11:38:01;;;;;;;2.80;2.45;;;20.60;57.10;;;;;;1895629;75;21012;-47
2023/05/13 11:40:33;;;;;;;4.22;2.55;;;20.60;57.60;;;;;;1887505;75;21100;-47
2023/05/13 11:43:03;;;;;;;3.17;2.40;;;20.50;57.80;;;;;;1897637;75;21101;-47
2023/05/13 11:45:33;;;;;;;4.47;3.02;;;20.50;57.50;;;;;;1884674;75;21097;-47
2023/05/13 11:48:05;;;;;;;4.53;2.80;;;20.60;58.30;;;;;;1890882;75;21114;-47
2023/05/13 11:50:34;;;;;;;6.35;3.52;;;20.70;58.00;;;;;;1867162;75;21004;-47
2023/05/13 11:53:03;;;;;;;3.37;3.05;;;20.80;58.00;;;;;;1874995;75;21108;-46
2023/05/13 11:55:36;;;;;;;3.22;2.60;;;20.90;57.20;;;;;;1850878;77;21090;-46
2023/05/13 11:58:05;;;;;;;3.25;2.42;;;21.00;57.50;;;;;;1881791;75;21024;-49
2023/05/13 12:00:35;;;;;;;4.47;3.35;;;21.00;57.90;;;;;;1897842;75;21015;-49
2023/05/13 12:03:07;;;;;;;10.55;3.83;;;21.00;57.40;;;;;;1883678;75;21008;-49
2023/05/13 12:05:36;;;;;;;5.83;3.87;;;21.00;57.20;;;;;;1886523;74;21489;-51
2023/05/13 12:08:08;;;;;;;7.42;4.50;;;21.00;57.30;;;;;;1892509;75;21113;-48
2023/05/13 12:10:44;;;;;;;5.30;3.27;;;21.00;57.70;;;;;;1839385;77;21469;-49
2023/05/13 12:13:14;;;;;;;8.98;5.30;;;20.90;58.00;;;;;;1894288;75;21023;-49
2023/05/13 12:15:43;;;;;;;14.13;6.25;;;20.90;58.20;;;;;;1901245;75;20988;-49
2023/05/13 12:18:13;;;;;;;7.62;4.05;;;20.90;58.00;;;;;;1885794;75;21086;-49
2023/05/13 12:20:43;;;;;;;4.05;3.55;;;20.90;58.00;;;;;;1902853;75;21361;-49
2023/05/13 12:23:12;;;;;;;3.98;3.25;;;20.90;57.60;;;;;;1898482;75;21161;-49
2023/05/13 12:25:47;;;;;;;6.60;3.67;;;20.80;57.40;;;;;;1894837;75;21053;-48
2023/05/13 12:28:23;;;;;;;5.92;3.30;;;20.70;58.00;;;;;;1899243;74;21030;-48
2023/05/13 12:31:01;;;;;;;3.37;2.35;;;20.70;58.10;;;;;;1899100;74;21030;-48
2023/05/13 12:33:45;;;;;;;6.42;3.10;;;20.70;57.60;;;;;;1894453;74;21073;-48
2023/05/13 12:36:34;;;;;;;4.83;2.87;;;20.70;57.20;;;;;;1912664;74;21104;-49
2023/05/13 12:39:01;;;;;;;3.03;2.30;;;20.70;56.90;;;;;;1923380;74;21128;-48
2023/05/13 12:41:32;;;;;;;4.67;3.42;;;20.70;56.90;;;;;;1922556;74;21069;-48
2023/05/13 12:44:03;;;;;;;4.70;2.62;;;20.80;56.80;;;;;;1910257;74;21563;-48
2023/05/13 12:46:33;;;;;;;4.95;3.15;;;20.80;57.00;;;;;;1924676;74;20999;-48
2023/05/13 12:49:03;;;;;;;5.03;3.85;;;20.80;57.40;;;;;;1906995;74;21014;-49
2023/05/13 12:51:33;;;;;;;5.80;3.47;;;20.80;57.20;;;;;;1904090;74;21066;-49
2023/05/13 12:54:02;;;;;;;4.30;3.10;;;20.80;57.50;;;;;;1913879;74;21469;-48
2023/05/13 12:56:32;;;;;;;8.78;3.90;;;20.80;57.60;;;;;;1906875;74;21078;-49
2023/05/13 12:59:01;;;;;;;6.83;3.55;;;20.70;57.90;;;;;;1899502;74;21022;-49
2023/05/13 13:01:30;;;;;;;7.10;2.85;;;20.60;57.30;;;;;;1903435;74;21152;-48
2023/05/13 13:03:59;;;;;;;6.70;3.27;;;20.50;57.10;;;;;;1921565;74;21014;-49